Time;durP1;ratioP1;P1;durP2;ratioP2;P2;SDS_P1;SDS_P2;PMS_P1;PMS_P2;Temp;Humidity;BMP_temperature;BMP_pressure;BME280_temperature;BME280_humidity;BME280_pressure;Samples;Min_cycle;Max_cycle;Signal;HPM_P1;HPM_P2
2021/01/13 00:00:14;;;;;;;26.43;16.17;;;;;;;0.29;78.45;97531.13;2151764;82;21122;-82
2021/01/13 00:03:17;;;;;;;30.67;15.33;;;;;;;0.29;78.35;97529.84;2151378;82;21158;-81
2021/01/13 00:06:18;;;;;;;28.63;15.60;;;;;;;0.28;78.49;97534.52;2151859;82;21435;-81
2021/01/13 00:09:22;;;;;;;26.67;15.80;;;;;;;0.27;78.77;97533.66;2151771;82;21163;-82
2021/01/13 00:12:23;;;;;;;28.00;15.90;;;;;;;0.27;78.61;97528.93;2151797;82;21122;-81
2021/01/13 00:15:24;;;;;;;26.83;16.67;;;;;;;0.28;79.15;97532.83;2151556;82;21131;-83
2021/01/13 00:18:25;;;;;;;23.83;15.23;;;;;;;0.29;79.13;97532.41;2151855;82;21163;-80
2021/01/13 00:21:26;;;;;;;33.37;19.00;;;;;;;0.29;78.96;97531.13;2151743;82;21444;-81
2021/01/13 00:24:27;;;;;;;29.97;15.33;;;;;;;0.31;78.91;97534.62;2151562;82;21147;-81
2021/01/13 00:27:28;;;;;;;27.07;17.03;;;;;;;0.31;79.50;97535.90;2151618;82;21183;-81
2021/01/13 00:30:29;;;;;;;31.70;17.77;;;;;;;0.30;79.61;97534.16;2151106;82;21107;-81
2021/01/13 00:33:30;;;;;;;24.57;16.27;;;;;;;0.28;79.40;97535.39;2151441;82;21778;-81
2021/01/13 00:36:32;;;;;;;27.10;16.13;;;;;;;0.26;79.97;97537.45;2151221;82;21147;-81
2021/01/13 00:39:33;;;;;;;19.97;14.57;;;;;;;0.25;80.13;97542.13;2151603;82;21575;-81
2021/01/13 00:42:34;;;;;;;27.20;18.60;;;;;;;0.27;79.60;97541.77;2151771;82;21160;-81
2021/01/13 00:45:35;;;;;;;25.77;17.60;;;;;;;0.26;80.41;97539.61;2163987;82;21235;-82
2021/01/13 00:48:36;;;;;;;23.23;16.00;;;;;;;0.22;79.93;97542.03;2162182;82;21170;-82
2021/01/13 00:51:37;;;;;;;25.93;14.00;;;;;;;0.22;80.19;97549.32;2161461;82;21269;-82
2021/01/13 00:54:38;;;;;;;28.33;16.03;;;;;;;0.22;80.63;97557.02;2161408;82;21269;-81
2021/01/13 00:57:39;;;;;;;28.33;16.93;;;;;;;0.24;80.43;97562.20;2161680;82;21276;-81
2021/01/13 01:00:40;;;;;;;26.87;16.67;;;;;;;0.25;80.12;97560.96;2161270;82;21261;-83
2021/01/13 01:03:41;;;;;;;22.73;15.97;;;;;;;0.26;80.52;97564.41;2160874;82;21138;-81
2021/01/13 01:06:42;;;;;;;31.67;19.17;;;;;;;0.25;81.05;97581.91;2160382;82;21317;-82
2021/01/13 01:09:43;;;;;;;24.93;16.60;;;;;;;0.24;80.69;97573.75;2160473;82;21288;-81
2021/01/13 01:12:44;;;;;;;24.93;16.97;;;;;;;0.22;80.87;97576.68;2161288;82;21404;-83
2021/01/13 01:15:45;;;;;;;23.87;16.40;;;;;;;0.20;81.61;97584.73;2161395;82;21273;-80
2021/01/13 01:18:46;;;;;;;26.70;17.70;;;;;;;0.18;81.79;97588.95;2161095;82;21241;-81
2021/01/13 01:21:47;;;;;;;23.40;14.57;;;;;;;0.13;82.25;97593.06;2161896;82;21170;-81
2021/01/13 01:24:48;;;;;;;21.17;14.40;;;;;;;0.11;81.96;97586.60;2161790;82;21258;-81
2021/01/13 01:27:50;;;;;;;23.20;15.00;;;;;;;0.11;82.48;97594.70;2161880;82;21309;-81
2021/01/13 01:30:51;;;;;;;21.07;13.37;;;;;;;0.10;82.76;97596.81;2161340;82;21273;-83
2021/01/13 01:33:52;;;;;;;18.47;12.90;;;;;;;0.10;82.51;97592.55;2161385;82;21316;-83
2021/01/13 01:36:53;;;;;;;13.67;10.47;;;;;;;0.10;83.14;97618.62;2161595;82;21143;-80
2021/01/13 01:39:54;;;;;;;13.50;9.53;;;;;;;0.11;82.42;97617.39;2161719;82;21281;-82
2021/01/13 01:42:55;;;;;;;16.37;10.37;;;;;;;0.09;81.85;97617.75;2161944;82;21277;-83
2021/01/13 01:45:56;;;;;;;15.07;10.27;;;;;;;0.08;80.65;97618.98;2167609;81;21531;-84
2021/01/13 01:48:57;;;;;;;20.87;10.77;;;;;;;0.06;80.29;97633.45;2171897;82;21284;-84
2021/01/13 01:51:59;;;;;;;15.27;10.30;;;;;;;0.04;79.55;97636.38;2172135;82;21256;-85
2021/01/13 01:55:01;;;;;;;13.23;9.93;;;;;;;0.01;79.64;97646.13;2174572;82;21153;-83
2021/01/13 01:58:02;;;;;;;18.47;10.90;;;;;;;-0.03;79.28;97632.30;2174699;82;21249;-83
2021/01/13 02:01:03;;;;;;;12.40;9.27;;;;;;;-0.04;79.32;97642.09;2174683;82;21412;-83
2021/01/13 02:04:04;;;;;;;16.17;10.40;;;;;;;-0.06;79.16;97641.17;2164990;82;21285;-82
2021/01/13 02:07:05;;;;;;;14.13;11.47;;;;;;;-0.10;78.87;97641.89;2162086;82;21552;-80
2021/01/13 02:10:10;;;;;;;13.07;9.93;;;;;;;-0.14;78.91;97655.42;2161711;82;21155;-81
2021/01/13 02:13:12;;;;;;;15.73;10.40;;;;;;;-0.16;78.85;97653.22;2161782;82;21257;-81
2021/01/13 02:16:13;;;;;;;14.47;11.93;;;;;;;-0.21;79.12;97653.47;2161945;82;21327;-82
2021/01/13 02:19:14;;;;;;;13.47;10.73;;;;;;;-0.21;79.14;97658.60;2161840;82;21307;-82
2021/01/13 02:22:17;;;;;;;16.97;12.27;;;;;;;-0.21;78.59;97656.45;2161874;82;21521;-82
2021/01/13 02:25:18;;;;;;;15.07;11.17;;;;;;;-0.25;78.69;97660.59;2161845;82;21257;-81
2021/01/13 02:28:19;;;;;;;14.13;9.63;;;;;;;-0.27;78.38;97663.52;2161948;82;21308;-82
2021/01/13 02:31:21;;;;;;;15.67;10.33;;;;;;;-0.29;78.21;97676.70;2161607;82;21940;-83
2021/01/13 02:34:22;;;;;;;10.30;8.40;;;;;;;-0.33;77.36;97679.56;2161771;82;21265;-82
2021/01/13 02:37:23;;;;;;;12.83;8.07;;;;;;;-0.35;76.57;97668.78;2161756;82;21305;-81
2021/01/13 02:40:24;;;;;;;10.93;8.10;;;;;;;-0.37;75.58;97672.98;2161517;82;21552;-85
2021/01/13 02:43:25;;;;;;;9.83;8.57;;;;;;;-0.41;76.03;97671.13;2161490;82;21289;-82
2021/01/13 02:46:26;;;;;;;10.63;9.33;;;;;;;-0.46;76.52;97675.22;2168849;82;21297;-83
2021/01/13 02:49:27;;;;;;;10.83;8.63;;;;;;;-0.49;76.91;97681.52;2168035;82;21268;-82
2021/01/13 02:52:29;;;;;;;10.20;8.50;;;;;;;-0.52;77.15;97682.28;2161846;81;21519;-81
2021/01/13 02:55:33;;;;;;;11.87;9.73;;;;;;;-0.54;77.41;97685.20;2161924;82;21257;-85
2021/01/13 02:58:34;;;;;;;10.30;9.03;;;;;;;-0.54;77.45;97680.08;2161699;82;21261;-77
2021/01/13 03:01:35;;;;;;;11.67;9.60;;;;;;;-0.53;77.59;97674.54;2161941;82;21245;-81
2021/01/13 03:04:36;;;;;;;10.93;9.33;;;;;;;-0.54;77.55;97687.77;2161774;82;21555;-80
2021/01/13 03:07:42;;;;;;;10.97;9.60;;;;;;;-0.53;77.71;97683.51;2162141;82;21359;-80
2021/01/13 03:10:42;;;;;;;12.83;10.03;;;;;;;-0.53;77.56;97686.95;2161647;82;21535;-78
2021/01/13 03:13:43;;;;;;;10.23;8.67;;;;;;;-0.52;77.62;97698.95;2162197;82;21134;-81
2021/01/13 03:16:45;;;;;;;11.43;8.33;;;;;;;-0.51;77.60;97697.25;2162077;82;21270;-82
2021/01/13 03:19:46;;;;;;;10.63;8.13;;;;;;;-0.51;77.62;97701.09;2161501;82;21260;-81
2021/01/13 03:22:47;;;;;;;12.73;8.33;;;;;;;-0.51;77.61;97705.82;2161443;82;21119;-81
2021/01/13 03:25:48;;;;;;;9.87;7.23;;;;;;;-0.51;77.62;97703.25;2161795;82;21253;-82
2021/01/13 03:28:49;;;;;;;8.53;7.23;;;;;;;-0.51;77.32;97692.13;2161420;82;21289;-82
2021/01/13 03:31:50;;;;;;;13.37;8.80;;;;;;;-0.59;77.11;97693.54;2161987;82;21277;-82
2021/01/13 03:34:53;;;;;;;12.70;9.17;;;;;;;-0.66;77.21;97700.13;2161801;82;21146;-81
2021/01/13 03:37:54;;;;;;;12.30;7.40;;;;;;;-0.77;77.08;97694.61;2162172;82;21241;-84
2021/01/13 03:40:58;;;;;;;13.17;8.63;;;;;;;-0.81;77.07;97699.16;2162040;82;21520;-82
2021/01/13 03:43:58;;;;;;;15.30;8.63;;;;;;;-0.83;77.06;97699.50;2161614;82;21280;-81
2021/01/13 03:46:59;;;;;;;14.27;9.30;;;;;;;-0.84;77.00;97699.03;2155877;81;21166;-83
2021/01/13 03:50:00;;;;;;;15.17;8.13;;;;;;;-0.88;76.84;97700.98;2152009;83;21150;-84
2021/01/13 03:53:02;;;;;;;11.47;7.57;;;;;;;-0.90;76.96;97700.05;2151825;83;21135;-83
2021/01/13 03:56:03;;;;;;;12.67;8.13;;;;;;;-0.83;76.99;97699.91;2151434;83;21572;-83
2021/01/13 03:59:04;;;;;;;11.30;7.73;;;;;;;-0.81;77.02;97703.40;2151487;83;21127;-83
2021/01/13 04:02:05;;;;;;;9.97;7.40;;;;;;;-0.78;77.04;97703.11;2152070;83;21131;-85
2021/01/13 04:05:06;;;;;;;10.57;7.83;;;;;;;-0.72;77.07;97704.62;2152121;82;21517;-84
2021/01/13 04:08:07;;;;;;;11.30;7.37;;;;;;;-0.66;77.00;97708.69;2151776;83;21166;-83
2021/01/13 04:11:08;;;;;;;10.90;7.80;;;;;;;-0.60;77.11;97709.73;2151640;82;21131;-86
2021/01/13 04:14:09;;;;;;;14.23;8.27;;;;;;;-0.56;77.11;97711.19;2151342;83;21139;-82
2021/01/13 04:17:10;;;;;;;14.03;9.20;;;;;;;-0.53;77.20;97713.86;2151122;82;21713;-83
2021/01/13 04:20:11;;;;;;;15.43;8.87;;;;;;;-0.51;77.32;97711.36;2150859;83;21143;-82
2021/01/13 04:23:12;;;;;;;11.80;8.47;;;;;;;-0.49;77.54;97712.28;2150738;83;21155;-81
2021/01/13 04:26:13;;;;;;;12.27;8.57;;;;;;;-0.49;77.88;97712.28;2150308;82;21131;-81
2021/01/13 04:29:14;;;;;;;14.10;9.47;;;;;;;-0.50;78.01;97704.13;2150482;83;21743;-81
2021/01/13 04:32:16;;;;;;;13.70;8.53;;;;;;;-0.51;78.39;97700.69;2150806;83;21084;-83
2021/01/13 04:35:17;;;;;;;15.00;9.30;;;;;;;-0.53;78.75;97707.86;2151206;82;21155;-80
2021/01/13 04:38:18;;;;;;;15.10;9.80;;;;;;;-0.54;78.85;97709.55;2151211;83;21132;-81
2021/01/13 04:41:19;;;;;;;12.80;9.27;;;;;;;-0.55;78.71;97701.39;2151761;82;21103;-81
2021/01/13 04:44:20;;;;;;;11.33;8.13;;;;;;;-0.51;79.17;97713.92;2149788;83;21198;-79
2021/01/13 04:47:21;;;;;;;14.63;10.47;;;;;;;-0.48;78.88;97711.47;2160206;82;21146;-81
2021/01/13 04:50:22;;;;;;;13.97;9.40;;;;;;;-0.43;78.96;97704.41;2159204;82;21260;-81
2021/01/13 04:53:23;;;;;;;16.13;11.47;;;;;;;-0.35;79.12;97718.78;2158543;82;21579;-80
2021/01/13 04:56:24;;;;;;;26.63;13.53;;;;;;;-0.29;78.93;97719.01;2159064;82;21299;-80
2021/01/13 04:59:25;;;;;;;38.43;16.30;;;;;;;-0.22;78.83;97717.13;2158928;82;21268;-81
2021/01/13 05:02:26;;;;;;;40.30;21.07;;;;;;;-0.17;78.71;97723.70;2159525;82;21750;-82
2021/01/13 05:05:28;;;;;;;42.70;21.93;;;;;;;-0.11;78.63;97717.09;2159593;82;21245;-81
2021/01/13 05:08:29;;;;;;;40.40;25.13;;;;;;;-0.12;78.99;97721.77;2159292;82;21277;-80
2021/01/13 05:11:30;;;;;;;30.93;16.97;;;;;;;-0.14;78.60;97721.24;2159682;82;21265;-81
2021/01/13 05:14:31;;;;;;;31.23;17.13;;;;;;;0.62;79.41;97713.61;2159441;82;21273;-81
2021/01/13 05:17:32;;;;;;;22.27;13.77;;;;;;;0.50;78.03;97714.08;2159450;82;21251;-81
2021/01/13 05:20:34;;;;;;;17.57;11.40;;;;;;;0.36;77.86;97711.47;2159009;82;21254;-82
2021/01/13 05:23:35;;;;;;;13.23;10.17;;;;;;;0.26;78.25;97715.83;2159434;82;21554;-81
2021/01/13 05:26:36;;;;;;;17.77;11.90;;;;;;;0.11;78.86;97715.30;2158850;82;21253;-82
2021/01/13 05:29:37;;;;;;;19.83;11.47;;;;;;;0.01;78.95;97718.38;2160234;82;21130;-81
2021/01/13 05:32:38;;;;;;;21.83;11.30;;;;;;;-0.05;79.36;97727.57;2160132;82;21293;-81
2021/01/13 05:35:39;;;;;;;16.47;9.57;;;;;;;-0.10;79.40;97736.80;2160545;82;21150;-81
2021/01/13 05:38:40;;;;;;;11.53;7.20;;;;;;;-0.12;79.73;97746.54;2160611;82;21146;-84
2021/01/13 05:41:41;;;;;;;10.27;7.47;;;;;;;-0.14;79.94;97746.48;2159675;82;21267;-80
2021/01/13 05:44:42;;;;;;;10.07;6.50;;;;;;;-0.17;80.18;97751.50;2159197;82;21520;-82
2021/01/13 05:47:43;;;;;;;7.73;6.63;;;;;;;-0.20;79.98;97756.94;2165002;82;21308;-81
2021/01/13 05:50:44;;;;;;;7.67;6.37;;;;;;;-0.21;79.77;97758.63;2166036;82;21268;-79
2021/01/13 05:53:45;;;;;;;7.17;5.03;;;;;;;-0.20;79.63;97763.34;2165041;82;21432;-81
2021/01/13 05:56:47;;;;;;;9.83;5.33;;;;;;;-0.21;79.85;97773.14;2164848;82;21261;-78
2021/01/13 05:59:48;;;;;;;7.93;5.03;;;;;;;-0.23;80.11;97783.34;2164488;82;21949;-79
2021/01/13 06:02:49;;;;;;;7.60;5.93;;;;;;;-0.25;79.36;97779.84;2158763;82;21276;-78
2021/01/13 06:05:50;;;;;;;7.50;3.87;;;;;;;-0.26;79.24;97784.51;2158456;82;21268;-80
2021/01/13 06:08:51;;;;;;;7.20;4.97;;;;;;;-0.31;78.90;97784.75;2157715;82;21647;-81
2021/01/13 06:11:52;;;;;;;6.57;4.20;;;;;;;-0.38;78.74;97786.62;2157701;82;21272;-78
2021/01/13 06:14:53;;;;;;;5.37;4.60;;;;;;;-0.48;79.69;97796.06;2158565;82;21261;-78
2021/01/13 06:17:55;;;;;;;6.03;4.70;;;;;;;-0.57;79.82;97801.71;2159026;82;21146;-79
2021/01/13 06:20:58;;;;;;;7.00;5.47;;;;;;;-0.63;80.14;97807.02;2158718;82;21114;-80
2021/01/13 06:23:59;;;;;;;5.07;4.57;;;;;;;-0.69;80.11;97808.52;2158987;82;21306;-78
2021/01/13 06:27:00;;;;;;;9.23;5.70;;;;;;;-0.71;80.23;97808.88;2159050;82;21321;-79
2021/01/13 06:30:01;;;;;;;12.53;7.10;;;;;;;-0.74;79.94;97822.84;2157666;82;21433;-78
2021/01/13 06:33:02;;;;;;;12.40;8.07;;;;;;;-0.76;79.86;97831.28;2158961;82;21559;-76
2021/01/13 06:36:04;;;;;;;16.37;8.37;;;;;;;-0.80;79.93;97837.98;2158764;82;21256;-76
2021/01/13 06:39:05;;;;;;;23.83;11.07;;;;;;;-0.83;79.93;97832.73;2158977;82;21260;-80
2021/01/13 06:42:06;;;;;;;10.00;6.43;;;;;;;-0.83;79.73;97835.70;2158045;82;21252;-79
2021/01/13 06:45:07;;;;;;;9.10;5.40;;;;;;;-0.86;79.54;97849.67;2158143;82;21888;-80
2021/01/13 06:48:08;;;;;;;8.63;4.83;;;;;;;-0.87;79.38;97848.77;2164202;81;21161;-79
2021/01/13 06:51:09;;;;;;;9.50;5.17;;;;;;;-0.88;79.15;97857.26;2163561;82;21261;-79
2021/01/13 06:54:12;;;;;;;6.67;4.00;;;;;;;-0.86;78.77;97859.91;2158944;82;21245;-79
2021/01/13 06:57:14;;;;;;;7.07;4.23;;;;;;;-0.87;78.27;97876.94;2158632;82;21257;-79
2021/01/13 07:00:15;;;;;;;9.60;4.30;;;;;;;-0.87;78.16;97877.34;2158830;82;21237;-79
2021/01/13 07:03:16;;;;;;;9.63;4.13;;;;;;;-0.88;78.06;97877.75;2159158;82;21622;-79
2021/01/13 07:06:17;;;;;;;13.57;4.73;;;;;;;-0.89;78.29;97876.01;2157593;82;21539;-78
2021/01/13 07:09:18;;;;;;;12.23;6.13;;;;;;;-0.89;78.46;97890.09;2158179;82;21292;-79
2021/01/13 07:12:22;;;;;;;11.97;5.07;;;;;;;-0.90;78.65;97888.75;2158802;82;21245;-79
2021/01/13 07:15:23;;;;;;;12.68;6.40;;;;;;;-0.88;78.84;97901.22;2158976;82;21319;-79
2021/01/13 07:18:24;;;;;;;12.93;5.30;;;;;;;-0.88;79.08;97896.09;2158229;82;21772;-81
2021/01/13 07:21:25;;;;;;;11.30;5.53;;;;;;;-0.89;79.04;97900.34;2157149;82;21252;-80
2021/01/13 07:24:26;;;;;;;11.63;5.80;;;;;;;-0.90;79.52;97905.00;2158250;82;21249;-79
2021/01/13 07:27:27;;;;;;;16.73;7.73;;;;;;;-0.90;79.44;97910.53;2158108;82;21280;-78
2021/01/13 07:30:28;;;;;;;20.73;9.10;;;;;;;-0.89;79.41;97909.31;2159069;82;21237;-81
2021/01/13 07:33:29;;;;;;;11.23;7.57;;;;;;;-0.84;79.23;97910.41;2159130;82;21153;-79
2021/01/13 07:36:31;;;;;;;10.67;6.03;;;;;;;-0.79;79.26;97917.88;2158809;82;21507;-80
2021/01/13 07:39:32;;;;;;;13.07;6.17;;;;;;;-0.75;79.16;97915.03;2158657;81;21241;-79
2021/01/13 07:42:33;;;;;;;14.83;7.50;;;;;;;-0.75;79.10;97915.03;2158317;82;21266;-79
2021/01/13 07:45:34;;;;;;;19.50;8.13;;;;;;;-0.73;79.08;97919.81;2158421;82;21273;-78
2021/01/13 07:48:35;;;;;;;17.53;6.87;;;;;;;-0.71;78.78;97925.47;2149829;81;21277;-79
2021/01/13 07:51:36;;;;;;;13.80;6.90;;;;;;;-0.67;78.32;97936.32;2149684;82;21092;-79
2021/01/13 07:54:37;;;;;;;11.53;6.03;;;;;;;-0.66;78.11;97938.07;2149516;83;21505;-78
2021/01/13 07:57:38;;;;;;;11.60;6.00;;;;;;;-0.63;78.03;97938.60;2148749;83;21242;-82
2021/01/13 08:00:39;;;;;;;12.00;6.90;;;;;;;-0.62;77.79;97935.63;2149546;83;21266;-76
2021/01/13 08:03:40;;;;;;;15.67;8.30;;;;;;;-0.58;77.73;97940.06;2148201;83;21273;-79
2021/01/13 08:06:42;;;;;;;18.67;8.60;;;;;;;-0.49;77.42;97946.44;2149141;83;21127;-77
2021/01/13 08:09:43;;;;;;;18.10;8.07;;;;;;;-0.34;76.75;97933.36;2150191;83;21436;-79
2021/01/13 08:12:44;;;;;;;11.70;6.60;;;;;;;-0.26;75.80;97940.95;2149930;83;21119;-80
2021/01/13 08:15:45;;;;;;;15.63;8.07;;;;;;;-0.23;75.22;97944.91;2149370;82;21587;-80
2021/01/13 08:18:50;;;;;;;20.03;9.67;;;;;;;-0.21;75.32;97943.28;2149810;83;21261;-80
2021/01/13 08:21:56;;;;;;;23.60;8.80;;;;;;;-0.15;75.13;97951.63;2149142;83;21296;-80
2021/01/13 08:25:02;;;;;;;19.53;8.80;;;;;;;-0.05;74.60;97953.73;2148718;83;21249;-81
2021/01/13 08:28:03;;;;;;;11.43;6.03;;;;;;;0.10;74.35;97963.34;2149156;83;21919;-80
2021/01/13 08:31:04;;;;;;;20.90;9.67;;;;;;;0.27;73.74;97962.28;2148391;83;21554;-79
2021/01/13 08:34:05;;;;;;;22.40;10.00;;;;;;;0.46;73.65;97955.27;2149474;83;21277;-78
2021/01/13 08:37:06;;;;;;;11.37;6.13;;;;;;;0.54;72.99;97952.16;2149859;83;21119;-78
2021/01/13 08:40:07;;;;;;;20.53;9.17;;;;;;;0.51;71.50;97966.17;2149015;83;21138;-78
2021/01/13 08:43:08;;;;;;;22.80;8.03;;;;;;;0.48;72.48;97969.04;2149609;83;21836;-80
2021/01/13 08:46:09;;;;;;;19.23;7.87;;;;;;;0.45;71.73;97976.22;2148889;82;21138;-79
2021/01/13 08:49:10;;;;;;;22.10;10.27;;;;;;;0.42;71.85;97974.82;2149931;83;21166;-81
2021/01/13 08:52:11;;;;;;;22.73;10.20;;;;;;;0.43;71.82;97976.98;2148887;83;21103;-78
2021/01/13 08:55:13;;;;;;;19.43;9.03;;;;;;;0.47;71.88;97978.44;2149047;82;21099;-79
2021/01/13 08:58:14;;;;;;;26.50;10.43;;;;;;;0.47;71.64;97982.28;2149562;82;21155;-80
2021/01/13 09:01:15;;;;;;;25.47;11.97;;;;;;;0.60;71.86;97978.06;2148789;83;21270;-80
2021/01/13 09:04:16;;;;;;;23.57;10.43;;;;;;;0.70;71.04;97974.14;2149142;82;21440;-81
2021/01/13 09:07:17;;;;;;;35.93;14.07;;;;;;;0.82;71.05;97969.44;2149062;82;21183;-79
2021/01/13 09:10:18;;;;;;;34.30;13.57;;;;;;;1.04;70.72;97965.97;2148618;82;21131;-80
2021/01/13 09:13:19;;;;;;;38.73;15.70;;;;;;;1.28;69.70;97966.81;2148570;82;21107;-80
2021/01/13 09:16:20;;;;;;;39.30;15.57;;;;;;;1.42;69.38;97970.26;2148828;82;21107;-79
2021/01/13 09:19:21;;;;;;;26.90;10.47;;;;;;;1.53;69.20;97967.63;2149485;82;21246;-81
2021/01/13 09:22:22;;;;;;;24.53;10.30;;;;;;;1.52;68.83;97973.59;2148808;82;21293;-80
2021/01/13 09:25:23;;;;;;;21.20;10.20;;;;;;;1.54;69.16;97968.09;2148746;83;21740;-79
2021/01/13 09:28:25;;;;;;;28.33;13.30;;;;;;;1.50;68.14;97973.55;2148130;82;21301;-80
2021/01/13 09:31:26;;;;;;;28.13;11.30;;;;;;;1.40;68.81;97970.20;2148993;82;21297;-79
2021/01/13 09:34:27;;;;;;;21.87;10.47;;;;;;;1.27;69.00;97974.06;2148113;82;21096;-79
2021/01/13 09:37:29;;;;;;;33.17;13.50;;;;;;;1.22;69.37;97976.89;2146996;82;21257;-79
2021/01/13 09:40:30;;;;;;;31.47;12.17;;;;;;;1.22;69.66;97975.59;2148362;82;21099;-80
2021/01/13 09:43:33;;;;;;;32.27;13.57;;;;;;;1.18;69.63;97975.03;2148744;82;21119;-81
2021/01/13 09:46:34;;;;;;;25.80;11.47;;;;;;;1.28;69.39;97974.94;2151114;82;21253;-79
2021/01/13 09:49:36;;;;;;;25.40;11.03;;;;;;;1.33;69.09;97975.97;2171774;82;21296;-80
2021/01/13 09:52:37;;;;;;;28.70;11.20;;;;;;;1.32;69.41;97973.34;2160502;82;21265;-80
2021/01/13 09:55:38;;;;;;;25.10;10.90;;;;;;;1.35;69.53;97961.88;2159238;82;21527;-79
2021/01/13 09:58:39;;;;;;;30.83;13.50;;;;;;;1.37;68.84;97967.94;2159111;82;21328;-78
2021/01/13 10:01:41;;;;;;;29.40;13.13;;;;;;;1.49;69.05;97963.20;2158504;82;21126;-79
2021/01/13 10:04:43;;;;;;;31.03;11.73;;;;;;;1.52;68.97;97960.73;2159167;82;21276;-77
2021/01/13 10:07:44;;;;;;;35.43;12.97;;;;;;;1.57;68.50;97962.63;2158835;82;21464;-79
2021/01/13 10:10:45;;;;;;;36.57;13.90;;;;;;;1.70;68.33;97958.77;2158964;82;21153;-78
2021/01/13 10:13:46;;;;;;;27.03;12.73;;;;;;;2.01;68.42;97962.34;2158770;82;21289;-81
2021/01/13 10:16:47;;;;;;;32.37;15.67;;;;;;;2.12;66.87;97959.68;2157226;82;21596;-79
2021/01/13 10:19:48;;;;;;;18.67;9.00;;;;;;;2.22;67.65;97964.28;2158147;82;21558;-79
2021/01/13 10:22:50;;;;;;;18.30;8.57;;;;;;;2.29;67.24;97966.22;2158754;82;21131;-79
2021/01/13 10:25:51;;;;;;;17.80;10.17;;;;;;;2.30;67.35;97969.25;2159159;82;21262;-79
2021/01/13 10:28:52;;;;;;;25.63;11.77;;;;;;;2.30;67.10;97971.82;2158773;82;21970;-77
2021/01/13 10:31:53;;;;;;;32.37;13.63;;;;;;;2.30;66.84;97962.81;2157979;82;21265;-77
2021/01/13 10:34:54;;;;;;;35.23;14.50;;;;;;;2.30;67.51;97962.81;2157862;82;21701;-78
2021/01/13 10:37:56;;;;;;;46.83;16.40;;;;;;;2.28;66.80;97964.47;2158178;82;21257;-78
2021/01/13 10:40:57;;;;;;;32.90;12.60;;;;;;;2.22;66.91;97957.84;2158176;82;21276;-78
2021/01/13 10:43:58;;;;;;;38.17;14.77;;;;;;;2.09;67.23;97964.32;2157576;82;21154;-78
2021/01/13 10:46:59;;;;;;;23.97;11.70;;;;;;;2.00;67.74;97972.17;2157597;81;21623;-80
2021/01/13 10:50:00;;;;;;;32.50;14.60;;;;;;;1.95;67.64;97968.58;2156011;82;21627;-78
2021/01/13 10:53:02;;;;;;;29.83;12.80;;;;;;;2.08;68.25;97968.13;2148231;83;21297;-77
2021/01/13 10:56:03;;;;;;;24.90;10.57;;;;;;;2.20;67.70;97970.67;2147925;83;21276;-78
2021/01/13 10:59:04;;;;;;;22.90;9.40;;;;;;;2.17;67.76;97964.55;2148662;83;21115;-78
2021/01/13 11:02:05;;;;;;;26.77;9.57;;;;;;;2.04;67.33;97971.44;2147584;83;21409;-78
2021/01/13 11:05:06;;;;;;;18.20;8.17;;;;;;;1.88;67.35;97969.67;2147855;83;21193;-79
2021/01/13 11:08:07;;;;;;;15.93;8.03;;;;;;;1.74;68.15;97973.92;2147867;83;21697;-78
2021/01/13 11:11:08;;;;;;;16.87;7.43;;;;;;;1.71;68.41;97965.66;2147442;83;21250;-78
2021/01/13 11:14:09;;;;;;;22.43;9.73;;;;;;;1.75;68.52;97958.94;2147757;83;21246;-80
2021/01/13 11:17:10;;;;;;;15.40;8.20;;;;;;;1.75;68.47;97963.67;2148075;83;21120;-78
2021/01/13 11:20:12;;;;;;;19.37;9.77;;;;;;;1.75;68.68;97954.67;2147847;83;21118;-77
2021/01/13 11:23:13;;;;;;;20.43;8.97;;;;;;;1.80;68.60;97950.55;2149207;83;21242;-80
2021/01/13 11:26:14;;;;;;;11.50;7.00;;;;;;;1.81;68.21;97955.28;2148329;83;21425;-79
2021/01/13 11:29:15;;;;;;;14.70;6.37;;;;;;;1.80;68.36;97960.84;2148816;83;21635;-80
2021/01/13 11:32:16;;;;;;;29.37;13.47;;;;;;;1.80;68.23;97945.40;2149343;82;21245;-79
2021/01/13 11:35:17;;;;;;;19.17;9.90;;;;;;;1.89;67.90;97932.82;2148573;82;21254;-80
2021/01/13 11:38:19;;;;;;;20.73;10.20;;;;;;;2.03;68.15;97921.66;2148463;82;21258;-77
2021/01/13 11:41:20;;;;;;;20.13;10.07;;;;;;;2.29;67.72;97917.28;2149033;82;21123;-78
2021/01/13 11:44:21;;;;;;;22.43;11.30;;;;;;;2.59;67.68;97911.27;2149229;83;21115;-79
2021/01/13 11:47:23;;;;;;;19.50;9.67;;;;;;;2.86;66.18;97924.53;2149749;82;21297;-81
2021/01/13 11:50:25;;;;;;;22.90;11.53;;;;;;;3.01;65.95;97916.33;2149544;82;21443;-80
2021/01/13 11:53:28;;;;;;;22.63;8.57;;;;;;;3.19;65.24;97916.81;2149489;83;21143;-79
2021/01/13 11:56:29;;;;;;;15.97;7.63;;;;;;;3.27;66.22;97922.16;2148126;83;21297;-81
2021/01/13 11:59:30;;;;;;;20.83;9.50;;;;;;;3.29;65.87;97919.63;2148341;83;21294;-80
2021/01/13 12:02:31;;;;;;;18.17;7.47;;;;;;;3.10;65.30;97916.57;2148875;83;21347;-81
2021/01/13 12:05:34;;;;;;;21.00;10.40;;;;;;;2.84;64.92;97922.73;2149011;83;21409;-81
2021/01/13 12:08:36;;;;;;;21.10;9.17;;;;;;;2.53;65.94;97926.13;2150243;83;21608;-81
2021/01/13 12:11:37;;;;;;;16.77;7.63;;;;;;;2.33;66.42;97922.98;2149191;82;21391;-80
2021/01/13 12:14:40;;;;;;;27.23;10.43;;;;;;;2.08;66.19;97921.38;2149173;83;21166;-79
2021/01/13 12:17:41;;;;;;;20.07;9.23;;;;;;;1.85;67.07;97925.83;2149370;83;21279;-79
2021/01/13 12:20:42;;;;;;;27.40;13.43;;;;;;;1.69;67.82;97924.86;2149269;83;21147;-79
2021/01/13 12:23:46;;;;;;;34.30;11.90;;;;;;;1.58;68.85;97930.95;2148790;83;21265;-83
2021/01/13 12:26:46;;;;;;;16.77;7.80;;;;;;;1.44;69.27;97929.63;2148893;83;21174;-79
2021/01/13 12:29:48;;;;;;;21.63;10.10;;;;;;;1.20;70.03;97919.41;2148591;82;21289;-79
2021/01/13 12:32:49;;;;;;;29.57;12.80;;;;;;;1.10;70.98;97926.34;2148968;82;21343;-79
2021/01/13 12:35:50;;;;;;;32.77;12.87;;;;;;;1.10;71.32;97927.63;2148044;83;21289;-79
2021/01/13 12:38:51;;;;;;;29.33;13.90;;;;;;;1.18;71.96;97921.05;2147473;83;21253;-78
2021/01/13 12:41:52;;;;;;;32.57;14.83;;;;;;;1.10;72.67;97945.63;2148262;83;21269;-77
2021/01/13 12:44:53;;;;;;;37.00;16.90;;;;;;;1.05;72.50;97939.86;2147315;83;21122;-78
2021/01/13 12:47:54;;;;;;;38.17;17.37;;;;;;;1.04;73.23;97936.41;2151606;82;21332;-79
2021/01/13 12:50:55;;;;;;;34.50;16.20;;;;;;;1.08;73.12;97934.83;2159666;82;21114;-77
2021/01/13 12:53:56;;;;;;;37.73;17.37;;;;;;;1.10;73.43;97930.20;2156594;82;21246;-80
2021/01/13 12:56:58;;;;;;;42.60;18.60;;;;;;;1.09;73.34;97934.87;2157535;82;21265;-78
2021/01/13 12:59:59;;;;;;;41.60;17.10;;;;;;;1.13;73.46;97928.14;2157317;82;21229;-78
2021/01/13 13:03:00;;;;;;;24.07;11.80;;;;;;;1.21;73.73;97929.28;2155813;82;21249;-82
2021/01/13 13:06:01;;;;;;;34.73;14.63;;;;;;;1.16;73.57;97929.12;2156161;82;21269;-77
2021/01/13 13:09:02;;;;;;;33.70;15.03;;;;;;;1.80;75.84;97929.95;2155736;82;21288;-78
2021/01/13 13:12:03;;;;;;;24.07;11.13;;;;;;;1.76;73.33;97925.95;2157603;82;21273;-78
2021/01/13 13:15:05;;;;;;;33.70;16.57;;;;;;;1.48;73.73;97935.74;2157147;82;21796;-79
2021/01/13 13:18:06;;;;;;;29.67;15.13;;;;;;;1.22;73.60;97929.33;2157161;82;21269;-79
2021/01/13 13:21:07;;;;;;;33.60;16.87;;;;;;;1.04;74.29;97924.84;2157884;82;21266;-80
2021/01/13 13:24:08;;;;;;;24.70;13.43;;;;;;;0.97;75.11;97928.03;2157847;82;21829;-79
2021/01/13 13:27:09;;;;;;;26.60;12.93;;;;;;;0.98;74.76;97936.61;2157847;82;21302;-79
2021/01/13 13:30:11;;;;;;;21.90;11.93;;;;;;;1.02;74.85;97935.90;2158182;82;21249;-80
2021/01/13 13:33:12;;;;;;;31.83;14.50;;;;;;;1.03;74.52;97928.66;2158131;82;21300;-78
2021/01/13 13:36:13;;;;;;;33.53;15.60;;;;;;;1.05;74.08;97935.59;2157010;82;21602;-78
2021/01/13 13:39:14;;;;;;;17.67;10.53;;;;;;;1.07;73.90;97941.66;2157588;82;21221;-80
2021/01/13 13:42:15;;;;;;;26.27;14.20;;;;;;;1.09;73.78;97947.72;2157533;82;21257;-81
2021/01/13 13:45:16;;;;;;;27.00;14.93;;;;;;;1.02;73.88;97946.17;2158344;82;21261;-81
2021/01/13 13:48:17;;;;;;;30.83;16.10;;;;;;;0.93;74.07;97954.03;2160069;82;21293;-81
2021/01/13 13:51:18;;;;;;;26.33;12.93;;;;;;;0.90;74.18;97949.20;2161141;82;22057;-77
2021/01/13 13:54:19;;;;;;;39.43;18.87;;;;;;;0.89;74.54;97942.30;2158606;82;21269;-77
2021/01/13 13:57:21;;;;;;;38.43;17.23;;;;;;;0.86;74.28;97939.19;2158208;82;21234;-79
2021/01/13 14:00:22;;;;;;;27.67;13.63;;;;;;;0.93;74.33;97936.05;2157700;82;21276;-79
2021/01/13 14:03:23;;;;;;;29.60;13.90;;;;;;;0.97;74.24;97946.43;2157620;82;21527;-80